Terminal Aerodrome Forecast
Issued by NWS Mt. Holly, NJ

Home | Current Version | Previous Version | Text Only | Print | Product List | Glossary On
Versions: 1 2 3 4 5 6 7 8 9 10 11 12 13 14 15 16 17
000
FTUS41 KPHI 020000 CCA
TAFACY
TAF COR
KACY 020006Z 0200/0224 19006KT P6SM OVC060
     FM020400 VRB03KT 5SM -RASN OVC050
     FM020700 14009KT 2SM +RA BR OVC009
     FM021100 19015KT 3SM -RA BR OVC009 WS020/21050KT
     FM021400 22015KT 5SM BR BKN010
     FM021800 29012KT 5SM BR BKN025
     FM022200 31022G38KT P6SM BKN030=

USA.gov is the U.S. government's official web portal to all federal, state and local government web resources and services.